createdAt,value
2023-04-22T10:07:30.681Z,13.10
2023-04-22T10:07:41.808Z,13.60
2023-04-22T10:07:52.007Z,13.60
2023-04-22T10:08:02.210Z,13.70
2023-04-22T10:08:12.759Z,13.70
2023-04-22T10:08:23.176Z,13.60
2023-04-22T10:08:32.421Z,14.00
2023-04-22T10:08:42.419Z,14.40
2023-04-22T10:08:52.707Z,14.80
2023-04-22T10:09:02.744Z,15.40
2023-04-22T10:09:12.867Z,16.00
2023-04-22T10:09:33.048Z,17.00
2023-04-22T10:09:43.172Z,17.00
2023-04-22T10:09:53.508Z,17.00
2023-04-22T10:10:03.533Z,17.20
2023-04-22T10:10:13.731Z,17.50
2023-04-22T10:10:23.764Z,17.40
2023-04-22T10:10:33.813Z,17.40
2023-04-22T10:10:43.886Z,17.20
2023-04-22T10:10:54.154Z,17.20
2023-04-22T10:11:04.077Z,16.60
2023-04-22T10:11:14.341Z,16.30
2023-04-22T10:11:24.491Z,15.90
2023-04-22T10:11:35.256Z,16.30
2023-04-22T10:11:47.335Z,16.60
2023-04-22T10:11:54.904Z,16.80
2023-04-22T10:12:05.081Z,17.50
2023-04-22T10:12:18.619Z,17.70
2023-04-22T10:12:35.720Z,18.20
2023-04-22T10:12:42.699Z,18.50
2023-04-22T10:12:53.286Z,18.20
2023-04-22T10:13:02.837Z,17.70
2023-04-22T10:13:12.143Z,17.50
2023-04-22T10:13:22.428Z,17.60
2023-04-22T10:13:32.405Z,17.70
2023-04-22T10:13:52.613Z,18.30
2023-04-22T10:14:02.873Z,18.70
2023-04-22T10:14:12.862Z,18.70
2023-04-22T10:14:23.023Z,18.20
2023-04-22T10:14:33.105Z,17.70
2023-04-22T10:14:43.212Z,16.40
2023-04-22T10:14:53.355Z,16.30
2023-04-22T10:15:03.538Z,17.00
2023-04-22T10:15:13.765Z,17.30
2023-04-22T10:15:25.685Z,17.80
2023-04-22T10:15:34.183Z,18.10
2023-04-22T10:15:44.095Z,18.60
2023-04-22T10:15:54.264Z,18.80
2023-04-22T10:16:05.270Z,17.90
2023-04-22T10:16:14.459Z,17.90
2023-04-22T10:16:24.542Z,17.80
2023-04-22T10:16:34.568Z,17.40
2023-04-22T10:16:44.814Z,17.10
2023-04-22T10:16:54.883Z,17.10
2023-04-22T10:17:15.163Z,17.20
2023-04-22T10:17:26.402Z,16.90
2023-04-22T10:17:35.481Z,17.10
2023-04-22T10:17:45.605Z,17.40
2023-04-22T10:17:56.826Z,17.20
2023-04-22T10:18:06.600Z,17.30
2023-04-22T10:18:15.903Z,17.60
2023-04-22T10:18:36.119Z,18.00
2023-04-22T10:18:49.348Z,18.10
2023-04-22T10:18:56.338Z,18.20
2023-04-22T10:19:06.536Z,17.90
2023-04-22T10:19:16.588Z,18.10
2023-04-22T10:19:26.705Z,18.40
2023-04-22T10:19:36.806Z,18.70
2023-04-22T10:19:57.060Z,19.10
2023-04-22T10:20:08.134Z,19.40
2023-04-22T10:20:18.093Z,19.40
2023-04-22T10:20:28.223Z,20.10
2023-04-22T10:20:38.015Z,19.50
2023-04-22T10:20:48.657Z,19.70
2023-04-22T10:21:01.717Z,19.50
2023-04-22T10:21:18.063Z,24.00
2023-04-22T10:21:28.070Z,43.40
2023-04-22T10:21:38.329Z,38.00
2023-04-22T10:21:48.527Z,34.50
2023-04-22T10:21:58.507Z,32.40
2023-04-22T10:22:08.700Z,33.70
2023-04-22T10:22:18.955Z,28.80
2023-04-22T10:22:29.003Z,34.30
2023-04-22T10:22:39.116Z,29.10
2023-04-22T10:22:49.217Z,26.70
2023-04-22T10:22:59.436Z,24.80
2023-04-22T10:23:09.378Z,24.40
2023-04-22T10:23:19.518Z,24.60
2023-04-22T10:23:30.075Z,22.40
2023-04-22T10:23:41.148Z,22.50
2023-04-22T10:23:49.887Z,23.40
2023-04-22T10:24:00.667Z,24.80
2023-04-22T10:24:11.237Z,24.30
2023-04-22T10:24:21.236Z,24.40
2023-04-22T10:24:31.318Z,23.70
2023-04-22T10:24:50.565Z,21.80
2023-04-22T10:25:00.660Z,20.00
2023-04-22T10:25:10.822Z,19.20
2023-04-22T10:25:20.781Z,18.70
2023-04-22T10:25:31.072Z,18.50
2023-04-22T10:25:41.056Z,18.40
2023-04-22T10:25:51.261Z,18.40
2023-04-22T10:26:01.339Z,18.90
2023-04-22T10:26:11.495Z,19.30
2023-04-22T10:26:21.680Z,18.10
2023-04-22T10:26:31.650Z,17.80
2023-04-22T10:26:43.625Z,17.50
2023-04-22T10:26:51.918Z,17.20
2023-04-22T10:27:02.087Z,17.20
2023-04-22T10:27:12.182Z,17.00
2023-04-22T10:27:23.126Z,17.00
2023-04-22T10:27:32.363Z,17.30
2023-04-22T10:27:52.812Z,17.50
2023-04-22T10:28:02.861Z,17.10
2023-04-22T10:28:12.900Z,17.60
2023-04-22T10:28:23.178Z,17.80
2023-04-22T10:28:34.822Z,18.30
2023-04-22T10:28:43.279Z,18.60
2023-04-22T10:28:54.691Z,19.00
2023-04-22T10:29:07.926Z,19.20
2023-04-22T10:29:14.001Z,19.10
2023-04-22T10:29:24.183Z,18.80
2023-04-22T10:29:44.654Z,17.30
2023-04-22T10:29:54.567Z,16.60
2023-04-22T10:30:04.841Z,16.50
2023-04-22T10:30:14.981Z,16.50
2023-04-22T10:30:25.113Z,16.50
2023-04-22T10:30:35.219Z,16.40
2023-04-22T10:30:45.211Z,16.80
2023-04-22T10:30:55.395Z,17.00
2023-04-22T10:31:06.182Z,17.30
2023-04-22T10:31:15.687Z,17.30
2023-04-22T10:31:27.202Z,17.70
2023-04-22T10:31:36.573Z,17.80
2023-04-22T10:31:46.554Z,17.40
2023-04-22T10:31:57.237Z,17.30
2023-04-22T10:32:10.622Z,17.50
2023-04-22T10:32:17.915Z,17.10
2023-04-22T10:32:30.350Z,16.60
2023-04-22T10:32:37.194Z,16.20
2023-04-22T10:32:48.647Z,16.20
2023-04-22T10:32:58.314Z,16.00
2023-04-22T10:33:09.250Z,15.80
2023-04-22T10:33:18.359Z,15.90
2023-04-22T10:33:38.796Z,16.50
2023-04-22T10:33:48.025Z,17.00
2023-04-22T10:33:58.068Z,17.10
2023-04-22T10:34:08.282Z,17.60
2023-04-22T10:34:18.352Z,17.90
2023-04-22T10:34:29.366Z,18.20
2023-04-22T10:34:40.670Z,17.70
2023-04-22T10:34:49.445Z,17.10
2023-04-22T10:34:58.883Z,17.10
2023-04-22T10:35:09.835Z,16.90
2023-04-22T10:35:19.030Z,16.90
2023-04-22T10:35:29.807Z,17.00
2023-04-22T10:35:49.382Z,17.60
2023-04-22T10:35:59.540Z,17.70
2023-04-22T10:36:10.336Z,17.50
2023-04-22T10:36:20.115Z,17.70
2023-04-22T10:36:30.813Z,17.60
2023-04-22T10:36:40.776Z,18.00
2023-04-22T10:36:50.213Z,18.20
2023-04-22T10:37:00.766Z,18.00
2023-04-22T10:37:11.306Z,17.90
2023-04-22T10:37:21.318Z,17.90
2023-04-22T10:37:33.196Z,18.40
2023-04-22T10:37:41.153Z,18.90
2023-04-22T10:37:50.842Z,18.90
2023-04-22T10:38:01.105Z,19.70
2023-04-22T10:38:11.804Z,20.60
2023-04-22T10:38:31.063Z,20.60
2023-04-22T10:38:41.294Z,20.00
2023-04-22T10:38:51.466Z,19.90
2023-04-22T10:39:03.762Z,19.80
2023-04-22T10:39:11.732Z,19.10
2023-04-22T10:39:21.909Z,18.60
2023-04-22T10:39:31.990Z,18.70
2023-04-22T10:39:42.544Z,18.70
2023-04-22T10:39:52.214Z,18.60
2023-04-22T10:40:12.478Z,17.20
2023-04-22T10:40:22.572Z,16.80
2023-04-22T10:40:32.732Z,16.50
2023-04-22T10:40:42.916Z,16.60
2023-04-22T10:40:53.165Z,16.70
2023-04-22T10:41:03.835Z,16.70
2023-04-22T10:41:13.329Z,16.60
2023-04-22T10:41:23.584Z,16.70
2023-04-22T10:41:34.197Z,17.80
2023-04-22T10:41:43.662Z,17.60
2023-04-22T10:41:54.668Z,17.20
2023-04-22T10:42:03.907Z,17.50
2023-04-22T10:42:14.049Z,18.10
2023-04-22T10:42:24.149Z,18.40
2023-04-22T10:42:34.138Z,17.20
2023-04-22T10:42:44.356Z,17.20
2023-04-22T10:43:04.669Z,17.70
2023-04-22T10:43:14.747Z,17.80
2023-04-22T10:43:24.855Z,17.60
2023-04-22T10:43:34.739Z,17.90
2023-04-22T10:43:45.188Z,17.90
2023-04-22T10:43:54.939Z,17.50
2023-04-22T10:44:05.092Z,17.60
2023-04-22T10:44:15.120Z,18.30
2023-04-22T10:44:25.288Z,18.80
2023-04-22T10:44:35.365Z,18.80
2023-04-22T10:44:45.497Z,18.40
2023-04-22T10:44:55.653Z,18.50
2023-04-22T10:45:05.737Z,18.80
2023-04-22T10:45:16.679Z,18.10
2023-04-22T10:45:25.993Z,17.30
2023-04-22T10:45:36.134Z,17.30
2023-04-22T10:45:46.237Z,17.80
2023-04-22T10:45:56.596Z,17.90
2023-04-22T10:46:06.485Z,18.10
2023-04-22T10:46:27.628Z,18.50
2023-04-22T10:46:36.828Z,18.50
2023-04-22T10:46:47.013Z,18.00
2023-04-22T10:46:57.097Z,18.10
2023-04-22T10:47:07.241Z,17.40
2023-04-22T10:47:17.405Z,17.80
2023-04-22T10:47:37.650Z,18.00
2023-04-22T10:47:47.889Z,18.30
2023-04-22T10:47:57.901Z,17.90
2023-04-22T10:48:08.032Z,17.70
2023-04-22T10:48:18.257Z,17.10
2023-04-22T10:48:28.233Z,18.80
2023-04-22T10:48:39.337Z,19.40
2023-04-22T10:48:48.498Z,19.30
2023-04-22T10:48:58.672Z,19.50
2023-04-22T10:49:08.773Z,19.80
2023-04-22T10:49:18.729Z,19.80
2023-04-22T10:49:29.161Z,17.50
2023-04-22T10:49:49.217Z,17.70
2023-04-22T10:49:59.254Z,17.80
2023-04-22T10:50:09.435Z,17.60
2023-04-22T10:50:19.541Z,17.90
2023-04-22T10:50:29.676Z,18.40
2023-04-22T10:50:39.859Z,19.60
2023-04-22T10:50:50.411Z,19.60
2023-04-22T10:51:00.264Z,19.70
2023-04-22T10:51:11.344Z,19.60
2023-04-22T10:51:20.315Z,19.50
2023-04-22T10:51:30.518Z,19.30
2023-04-22T10:51:40.664Z,18.00
2023-04-22T10:51:50.840Z,18.90
2023-04-22T10:52:00.951Z,19.30
2023-04-22T10:52:21.012Z,19.70
2023-04-22T10:52:31.035Z,19.40
2023-04-22T10:52:41.263Z,19.20
2023-04-22T10:52:51.406Z,22.40
2023-04-22T10:53:01.411Z,26.00
2023-04-22T10:53:11.699Z,42.80
2023-04-22T10:53:21.819Z,33.20
2023-04-22T10:53:31.881Z,29.30
2023-04-22T10:53:42.132Z,58.20
2023-04-22T10:53:52.255Z,48.60
2023-04-22T10:54:02.357Z,35.00
2023-04-22T10:54:12.538Z,31.10
2023-04-22T10:54:22.763Z,29.20
2023-04-22T10:54:32.968Z,28.30
2023-04-22T10:54:42.937Z,22.00
2023-04-22T10:54:53.289Z,23.10
2023-04-22T10:55:03.307Z,35.20
2023-04-22T10:55:14.156Z,31.10
2023-04-22T10:55:23.505Z,27.80
2023-04-22T10:55:33.696Z,57.20
2023-04-22T10:55:43.774Z,60.90
2023-04-22T10:55:53.895Z,44.90
2023-04-22T10:56:03.982Z,41.20
2023-04-22T10:56:24.187Z,36.70
2023-04-22T10:56:34.481Z,30.10
2023-04-22T10:56:57.996Z,26.70
2023-04-22T10:57:06.663Z,25.80
2023-04-22T10:57:15.263Z,21.40
2023-04-22T10:57:24.942Z,20.00
2023-04-22T10:57:34.956Z,19.00
2023-04-22T10:57:45.180Z,17.30
2023-04-22T10:57:55.307Z,16.70
2023-04-22T10:58:15.553Z,15.90
2023-04-22T10:58:25.626Z,16.30
2023-04-22T10:58:35.804Z,16.90
2023-04-22T10:58:45.861Z,17.20
2023-04-22T10:58:55.962Z,17.40
2023-04-22T10:59:06.169Z,17.40
2023-04-22T10:59:16.277Z,17.50
2023-04-22T10:59:27.069Z,17.70
2023-04-22T10:59:36.607Z,17.40
2023-04-22T10:59:47.462Z,17.40
2023-04-22T10:59:56.768Z,17.30
2023-04-22T11:00:06.931Z,17.40
2023-04-22T11:00:17.127Z,17.30
2023-04-22T11:00:28.231Z,16.90
2023-04-22T11:00:53.826Z,17.30
2023-04-22T11:01:00.063Z,17.60
2023-04-22T11:01:07.751Z,18.80
2023-04-22T11:01:21.302Z,20.00
2023-04-22T11:01:28.376Z,20.50
2023-04-22T11:01:38.268Z,20.50
2023-04-22T11:01:48.114Z,20.70
2023-04-22T11:02:08.024Z,19.60
2023-04-22T11:02:17.998Z,18.60
2023-04-22T11:02:28.300Z,17.80
2023-04-22T11:02:38.310Z,17.40
2023-04-22T11:02:48.407Z,16.80
2023-04-22T11:02:58.638Z,16.60
2023-04-22T11:03:08.850Z,16.40
2023-04-22T11:03:19.005Z,16.50
2023-04-22T11:03:29.792Z,17.20
2023-04-22T11:03:39.428Z,17.60
2023-04-22T11:03:49.246Z,17.70
2023-04-22T11:04:00.084Z,17.60
2023-04-22T11:04:09.560Z,17.40
2023-04-22T11:04:20.679Z,17.60
2023-04-22T11:04:30.117Z,17.50
2023-04-22T11:04:39.939Z,17.50
2023-04-22T11:04:49.963Z,18.10
2023-04-22T11:05:00.058Z,18.50
2023-04-22T11:05:11.218Z,18.80
